Pineville, Arkansas
Current Conditions -  °F | °C
As of 1:53 PM on Thursday 27 Nov 2014 (Local Time) from KBPK Reporting Station
Clear Clear  
Wind Chill: 42°   Ceiling: Unl
Heat Index: 44°   Visibility: 8mi
Dew Point: 24°   Wind: 5mph
Humidity: 45%   Direction: NA
Pressure: 30.45"   Gusts: NA
Location:  36.16°N, 92.11°W
Report Text: KBPK 271953Z AUTO VRB04KT 8SM CLR 07/M04 A3045 RMK AO2 SLP316 T00671044
Loading
Personal Weather Stations






























Interactive Weather Map New forecast layout! Learn more

10-Day Weather Forecast

Advertisements
Track Severe Weather on mobile